sensor_id;sensor_type;location;lat;lon;timestamp;P1;durP1;ratioP1;P2;durP2;ratioP2
23636;SDS011;11995;50.842;4.456;2023-02-13T00:00:58;106.27;;;49.27;;
23636;SDS011;11995;50.842;4.456;2023-02-13T00:03:26;112.42;;;49.58;;
23636;SDS011;11995;50.842;4.456;2023-02-13T00:05:53;107.95;;;49.18;;
23636;SDS011;11995;50.842;4.456;2023-02-13T00:08:21;114.95;;;51.18;;
23636;SDS011;11995;50.842;4.456;2023-02-13T00:10:48;118.60;;;52.67;;
23636;SDS011;11995;50.842;4.456;2023-02-13T00:13:16;110.03;;;50.00;;
23636;SDS011;11995;50.842;4.456;2023-02-13T00:15:43;109.83;;;50.05;;
23636;SDS011;11995;50.842;4.456;2023-02-13T00:18:11;103.58;;;49.55;;
23636;SDS011;11995;50.842;4.456;2023-02-13T00:20:38;107.05;;;50.08;;
23636;SDS011;11995;50.842;4.456;2023-02-13T00:23:06;106.63;;;48.58;;
23636;SDS011;11995;50.842;4.456;2023-02-13T00:25:34;112.72;;;49.70;;
23636;SDS011;11995;50.842;4.456;2023-02-13T00:28:02;106.50;;;48.02;;
23636;SDS011;11995;50.842;4.456;2023-02-13T00:30:29;115.52;;;50.40;;
23636;SDS011;11995;50.842;4.456;2023-02-13T00:32:58;107.90;;;48.65;;
23636;SDS011;11995;50.842;4.456;2023-02-13T00:35:25;104.87;;;48.48;;
23636;SDS011;11995;50.842;4.456;2023-02-13T00:37:53;113.52;;;48.15;;
23636;SDS011;11995;50.842;4.456;2023-02-13T00:40:20;110.00;;;48.15;;
23636;SDS011;11995;50.842;4.456;2023-02-13T00:42:48;112.80;;;49.63;;
23636;SDS011;11995;50.842;4.456;2023-02-13T00:45:16;112.17;;;50.28;;
23636;SDS011;11995;50.842;4.456;2023-02-13T00:47:44;115.45;;;51.60;;
23636;SDS011;11995;50.842;4.456;2023-02-13T00:50:11;111.88;;;48.48;;
23636;SDS011;11995;50.842;4.456;2023-02-13T00:52:39;117.40;;;49.88;;
23636;SDS011;11995;50.842;4.456;2023-02-13T00:55:07;110.52;;;47.38;;
23636;SDS011;11995;50.842;4.456;2023-02-13T00:57:34;114.52;;;49.95;;
23636;SDS011;11995;50.842;4.456;2023-02-13T01:00:02;116.08;;;50.38;;
23636;SDS011;11995;50.842;4.456;2023-02-13T01:02:29;117.15;;;50.92;;
23636;SDS011;11995;50.842;4.456;2023-02-13T01:04:58;117.40;;;50.43;;
23636;SDS011;11995;50.842;4.456;2023-02-13T01:07:26;111.03;;;49.53;;
23636;SDS011;11995;50.842;4.456;2023-02-13T01:09:53;115.20;;;49.25;;
23636;SDS011;11995;50.842;4.456;2023-02-13T01:12:21;110.92;;;48.98;;
23636;SDS011;11995;50.842;4.456;2023-02-13T01:14:48;110.03;;;46.60;;
23636;SDS011;11995;50.842;4.456;2023-02-13T01:17:18;117.13;;;48.52;;
23636;SDS011;11995;50.842;4.456;2023-02-13T01:19:47;118.97;;;48.58;;
23636;SDS011;11995;50.842;4.456;2023-02-13T01:22:14;117.40;;;46.45;;
23636;SDS011;11995;50.842;4.456;2023-02-13T01:24:43;121.17;;;47.85;;
23636;SDS011;11995;50.842;4.456;2023-02-13T01:27:11;124.30;;;49.60;;
23636;SDS011;11995;50.842;4.456;2023-02-13T01:29:39;108.55;;;46.83;;
23636;SDS011;11995;50.842;4.456;2023-02-13T01:32:06;110.12;;;47.43;;
23636;SDS011;11995;50.842;4.456;2023-02-13T01:34:34;110.52;;;46.18;;
23636;SDS011;11995;50.842;4.456;2023-02-13T01:37:01;122.70;;;50.45;;
23636;SDS011;11995;50.842;4.456;2023-02-13T01:39:29;126.35;;;51.95;;
23636;SDS011;11995;50.842;4.456;2023-02-13T01:41:56;120.42;;;49.80;;
23636;SDS011;11995;50.842;4.456;2023-02-13T01:47:11;121.50;;;46.88;;
23636;SDS011;11995;50.842;4.456;2023-02-13T01:49:42;117.60;;;47.73;;
23636;SDS011;11995;50.842;4.456;2023-02-13T01:52:11;129.25;;;50.08;;
23636;SDS011;11995;50.842;4.456;2023-02-13T01:54:43;110.97;;;47.88;;
23636;SDS011;11995;50.842;4.456;2023-02-13T01:57:16;121.33;;;49.70;;
23636;SDS011;11995;50.842;4.456;2023-02-13T01:59:47;122.50;;;48.45;;
23636;SDS011;11995;50.842;4.456;2023-02-13T02:02:20;122.25;;;46.98;;
23636;SDS011;11995;50.842;4.456;2023-02-13T02:04:48;122.75;;;49.38;;
23636;SDS011;11995;50.842;4.456;2023-02-13T02:07:20;116.33;;;47.15;;
23636;SDS011;11995;50.842;4.456;2023-02-13T02:10:09;124.25;;;49.00;;
23636;SDS011;11995;50.842;4.456;2023-02-13T02:12:42;113.97;;;45.88;;
23636;SDS011;11995;50.842;4.456;2023-02-13T02:15:14;119.65;;;48.23;;
23636;SDS011;11995;50.842;4.456;2023-02-13T02:17:42;114.65;;;47.58;;
23636;SDS011;11995;50.842;4.456;2023-02-13T02:25:47;127.65;;;50.35;;
23636;SDS011;11995;50.842;4.456;2023-02-13T02:34:12;126.12;;;46.15;;
23636;SDS011;11995;50.842;4.456;2023-02-13T02:36:49;120.65;;;47.17;;
23636;SDS011;11995;50.842;4.456;2023-02-13T02:39:25;122.67;;;47.05;;
23636;SDS011;11995;50.842;4.456;2023-02-13T02:42:09;114.92;;;45.88;;
23636;SDS011;11995;50.842;4.456;2023-02-13T02:50:40;122.15;;;45.60;;
23636;SDS011;11995;50.842;4.456;2023-02-13T02:53:23;116.55;;;46.68;;
23636;SDS011;11995;50.842;4.456;2023-02-13T02:56:03;124.47;;;47.88;;
23636;SDS011;11995;50.842;4.456;2023-02-13T02:58:47;124.02;;;46.37;;
23636;SDS011;11995;50.842;4.456;2023-02-13T03:01:37;120.70;;;46.00;;
23636;SDS011;11995;50.842;4.456;2023-02-13T03:04:26;107.60;;;44.08;;
23636;SDS011;11995;50.842;4.456;2023-02-13T03:07:17;112.70;;;44.93;;
23636;SDS011;11995;50.842;4.456;2023-02-13T03:09:50;113.25;;;44.23;;
23636;SDS011;11995;50.842;4.456;2023-02-13T03:15:35;122.37;;;44.17;;
23636;SDS011;11995;50.842;4.456;2023-02-13T03:18:07;111.32;;;44.80;;
23636;SDS011;11995;50.842;4.456;2023-02-13T03:21:05;121.10;;;46.15;;
23636;SDS011;11995;50.842;4.456;2023-02-13T03:24:06;121.07;;;44.35;;
23636;SDS011;11995;50.842;4.456;2023-02-13T03:29:56;118.02;;;45.70;;
23636;SDS011;11995;50.842;4.456;2023-02-13T03:32:38;115.20;;;43.55;;
23636;SDS011;11995;50.842;4.456;2023-02-13T03:38:25;116.15;;;44.53;;
23636;SDS011;11995;50.842;4.456;2023-02-13T03:40:56;107.35;;;44.45;;
23636;SDS011;11995;50.842;4.456;2023-02-13T03:43:51;111.22;;;44.38;;
23636;SDS011;11995;50.842;4.456;2023-02-13T03:46:18;110.35;;;45.67;;
23636;SDS011;11995;50.842;4.456;2023-02-13T03:48:48;115.22;;;45.58;;
23636;SDS011;11995;50.842;4.456;2023-02-13T03:51:57;109.50;;;45.50;;
23636;SDS011;11995;50.842;4.456;2023-02-13T03:54:11;123.87;;;47.27;;
23636;SDS011;11995;50.842;4.456;2023-02-13T03:56:40;114.97;;;46.60;;
23636;SDS011;11995;50.842;4.456;2023-02-13T03:59:33;114.70;;;45.03;;
23636;SDS011;11995;50.842;4.456;2023-02-13T04:02:09;115.40;;;44.13;;
23636;SDS011;11995;50.842;4.456;2023-02-13T04:04:53;117.87;;;44.80;;
23636;SDS011;11995;50.842;4.456;2023-02-13T04:07:26;121.95;;;43.45;;
23636;SDS011;11995;50.842;4.456;2023-02-13T04:09:58;128.18;;;47.93;;
23636;SDS011;11995;50.842;4.456;2023-02-13T04:12:38;114.35;;;44.33;;
23636;SDS011;11995;50.842;4.456;2023-02-13T04:17:48;120.65;;;44.00;;
23636;SDS011;11995;50.842;4.456;2023-02-13T04:20:17;129.53;;;46.37;;
23636;SDS011;11995;50.842;4.456;2023-02-13T04:22:46;114.82;;;43.85;;
23636;SDS011;11995;50.842;4.456;2023-02-13T04:27:42;115.10;;;42.55;;
23636;SDS011;11995;50.842;4.456;2023-02-13T04:30:10;111.08;;;43.45;;
23636;SDS011;11995;50.842;4.456;2023-02-13T04:32:38;117.15;;;45.15;;
23636;SDS011;11995;50.842;4.456;2023-02-13T04:35:06;115.45;;;41.95;;
23636;SDS011;11995;50.842;4.456;2023-02-13T04:37:35;114.52;;;43.50;;
23636;SDS011;11995;50.842;4.456;2023-02-13T04:40:02;126.10;;;49.25;;
23636;SDS011;11995;50.842;4.456;2023-02-13T04:42:30;128.13;;;45.30;;
23636;SDS011;11995;50.842;4.456;2023-02-13T04:44:58;109.85;;;44.42;;
23636;SDS011;11995;50.842;4.456;2023-02-13T04:47:25;112.12;;;42.98;;
23636;SDS011;11995;50.842;4.456;2023-02-13T04:49:53;114.60;;;44.05;;
23636;SDS011;11995;50.842;4.456;2023-02-13T04:52:20;103.55;;;41.60;;
23636;SDS011;11995;50.842;4.456;2023-02-13T04:54:48;101.12;;;42.43;;
23636;SDS011;11995;50.842;4.456;2023-02-13T04:57:16;109.52;;;44.77;;
23636;SDS011;11995;50.842;4.456;2023-02-13T04:59:43;120.60;;;44.73;;
23636;SDS011;11995;50.842;4.456;2023-02-13T05:02:11;110.52;;;42.55;;
23636;SDS011;11995;50.842;4.456;2023-02-13T05:04:38;115.92;;;43.35;;
23636;SDS011;11995;50.842;4.456;2023-02-13T05:07:06;108.95;;;43.23;;
23636;SDS011;11995;50.842;4.456;2023-02-13T05:09:33;110.92;;;44.00;;
23636;SDS011;11995;50.842;4.456;2023-02-13T05:12:01;115.85;;;45.63;;
23636;SDS011;11995;50.842;4.456;2023-02-13T05:14:28;113.75;;;43.38;;
23636;SDS011;11995;50.842;4.456;2023-02-13T05:16:56;112.28;;;42.90;;
23636;SDS011;11995;50.842;4.456;2023-02-13T05:19:23;113.08;;;44.53;;
23636;SDS011;11995;50.842;4.456;2023-02-13T05:21:51;106.45;;;41.83;;
23636;SDS011;11995;50.842;4.456;2023-02-13T05:24:36;114.80;;;44.65;;
23636;SDS011;11995;50.842;4.456;2023-02-13T05:27:04;115.92;;;42.90;;
23636;SDS011;11995;50.842;4.456;2023-02-13T05:29:31;107.78;;;40.00;;
23636;SDS011;11995;50.842;4.456;2023-02-13T05:31:59;114.57;;;43.23;;
23636;SDS011;11995;50.842;4.456;2023-02-13T05:34:26;117.93;;;44.30;;
23636;SDS011;11995;50.842;4.456;2023-02-13T05:36:54;114.50;;;42.43;;
23636;SDS011;11995;50.842;4.456;2023-02-13T05:39:22;106.50;;;43.60;;
23636;SDS011;11995;50.842;4.456;2023-02-13T05:41:49;112.92;;;42.48;;
23636;SDS011;11995;50.842;4.456;2023-02-13T05:44:17;99.22;;;42.05;;
23636;SDS011;11995;50.842;4.456;2023-02-13T05:46:45;120.70;;;44.42;;
23636;SDS011;11995;50.842;4.456;2023-02-13T05:49:13;105.32;;;41.90;;
23636;SDS011;11995;50.842;4.456;2023-02-13T05:51:41;103.78;;;40.73;;
23636;SDS011;11995;50.842;4.456;2023-02-13T05:54:09;108.55;;;41.85;;
23636;SDS011;11995;50.842;4.456;2023-02-13T05:56:36;106.80;;;44.45;;
23636;SDS011;11995;50.842;4.456;2023-02-13T05:59:04;108.12;;;41.85;;
23636;SDS011;11995;50.842;4.456;2023-02-13T06:01:31;105.17;;;42.90;;
23636;SDS011;11995;50.842;4.456;2023-02-13T06:03:59;110.12;;;42.58;;
23636;SDS011;11995;50.842;4.456;2023-02-13T06:06:26;114.67;;;42.27;;
23636;SDS011;11995;50.842;4.456;2023-02-13T06:08:54;108.17;;;41.00;;
23636;SDS011;11995;50.842;4.456;2023-02-13T06:11:21;106.40;;;41.35;;
23636;SDS011;11995;50.842;4.456;2023-02-13T06:13:49;109.97;;;42.85;;
23636;SDS011;11995;50.842;4.456;2023-02-13T06:16:16;119.05;;;45.40;;
23636;SDS011;11995;50.842;4.456;2023-02-13T06:18:44;104.10;;;43.15;;
23636;SDS011;11995;50.842;4.456;2023-02-13T06:21:11;108.35;;;41.70;;
23636;SDS011;11995;50.842;4.456;2023-02-13T06:23:39;113.17;;;43.68;;
23636;SDS011;11995;50.842;4.456;2023-02-13T06:26:07;111.10;;;42.78;;
23636;SDS011;11995;50.842;4.456;2023-02-13T06:28:35;109.27;;;42.55;;
23636;SDS011;11995;50.842;4.456;2023-02-13T06:31:03;111.22;;;42.40;;
23636;SDS011;11995;50.842;4.456;2023-02-13T06:33:30;111.77;;;43.95;;
23636;SDS011;11995;50.842;4.456;2023-02-13T06:35:58;109.75;;;44.27;;
23636;SDS011;11995;50.842;4.456;2023-02-13T06:38:25;115.35;;;43.48;;
23636;SDS011;11995;50.842;4.456;2023-02-13T06:40:57;151.78;;;61.15;;
23636;SDS011;11995;50.842;4.456;2023-02-13T06:43:24;114.80;;;41.70;;
23636;SDS011;11995;50.842;4.456;2023-02-13T06:45:52;109.63;;;44.00;;
23636;SDS011;11995;50.842;4.456;2023-02-13T06:48:19;101.53;;;40.90;;
23636;SDS011;11995;50.842;4.456;2023-02-13T06:50:47;109.07;;;43.25;;
23636;SDS011;11995;50.842;4.456;2023-02-13T06:53:17;109.63;;;45.10;;
23636;SDS011;11995;50.842;4.456;2023-02-13T06:55:46;117.82;;;45.78;;
23636;SDS011;11995;50.842;4.456;2023-02-13T06:58:14;112.03;;;48.33;;
23636;SDS011;11995;50.842;4.456;2023-02-13T07:00:41;100.18;;;42.70;;
23636;SDS011;11995;50.842;4.456;2023-02-13T07:03:09;103.83;;;42.55;;
23636;SDS011;11995;50.842;4.456;2023-02-13T07:05:40;104.65;;;42.85;;
23636;SDS011;11995;50.842;4.456;2023-02-13T07:08:11;104.65;;;43.85;;
23636;SDS011;11995;50.842;4.456;2023-02-13T07:10:40;107.37;;;45.15;;
23636;SDS011;11995;50.842;4.456;2023-02-13T07:13:08;100.20;;;42.03;;
23636;SDS011;11995;50.842;4.456;2023-02-13T07:15:36;97.12;;;44.05;;
23636;SDS011;11995;50.842;4.456;2023-02-13T07:18:04;103.58;;;42.30;;
23636;SDS011;11995;50.842;4.456;2023-02-13T07:20:32;109.52;;;44.08;;
23636;SDS011;11995;50.842;4.456;2023-02-13T07:23:00;101.00;;;43.73;;
23636;SDS011;11995;50.842;4.456;2023-02-13T07:25:30;109.05;;;45.90;;
23636;SDS011;11995;50.842;4.456;2023-02-13T07:28:03;101.92;;;46.88;;
23636;SDS011;11995;50.842;4.456;2023-02-13T07:30:28;109.15;;;45.23;;
23636;SDS011;11995;50.842;4.456;2023-02-13T07:33:03;103.38;;;42.75;;
23636;SDS011;11995;50.842;4.456;2023-02-13T07:35:31;91.17;;;40.23;;
23636;SDS011;11995;50.842;4.456;2023-02-13T07:38:00;104.25;;;41.77;;
23636;SDS011;11995;50.842;4.456;2023-02-13T07:40:28;92.08;;;40.48;;
23636;SDS011;11995;50.842;4.456;2023-02-13T07:42:58;94.07;;;40.60;;
23636;SDS011;11995;50.842;4.456;2023-02-13T07:45:26;106.12;;;41.95;;
23636;SDS011;11995;50.842;4.456;2023-02-13T07:48:01;99.15;;;42.20;;
23636;SDS011;11995;50.842;4.456;2023-02-13T07:50:29;89.92;;;38.90;;
23636;SDS011;11995;50.842;4.456;2023-02-13T07:53:00;87.60;;;39.33;;
23636;SDS011;11995;50.842;4.456;2023-02-13T07:55:30;94.37;;;41.80;;
23636;SDS011;11995;50.842;4.456;2023-02-13T07:57:59;110.85;;;44.20;;
23636;SDS011;11995;50.842;4.456;2023-02-13T08:00:27;97.90;;;44.03;;
23636;SDS011;11995;50.842;4.456;2023-02-13T08:02:57;98.40;;;41.92;;
23636;SDS011;11995;50.842;4.456;2023-02-13T08:05:27;100.02;;;41.92;;
23636;SDS011;11995;50.842;4.456;2023-02-13T08:07:56;98.12;;;43.65;;
23636;SDS011;11995;50.842;4.456;2023-02-13T08:10:23;104.12;;;45.08;;
23636;SDS011;11995;50.842;4.456;2023-02-13T08:13:09;100.47;;;41.30;;
23636;SDS011;11995;50.842;4.456;2023-02-13T08:15:39;83.78;;;39.78;;
23636;SDS011;11995;50.842;4.456;2023-02-13T08:18:09;89.52;;;40.60;;
23636;SDS011;11995;50.842;4.456;2023-02-13T08:20:36;87.17;;;39.40;;
23636;SDS011;11995;50.842;4.456;2023-02-13T08:23:05;86.30;;;40.23;;
23636;SDS011;11995;50.842;4.456;2023-02-13T08:25:36;83.27;;;39.33;;
23636;SDS011;11995;50.842;4.456;2023-02-13T08:28:04;80.05;;;37.88;;
23636;SDS011;11995;50.842;4.456;2023-02-13T08:30:31;88.07;;;40.43;;
23636;SDS011;11995;50.842;4.456;2023-02-13T08:32:59;82.45;;;38.75;;
23636;SDS011;11995;50.842;4.456;2023-02-13T08:35:26;79.17;;;39.27;;
23636;SDS011;11995;50.842;4.456;2023-02-13T08:37:54;92.53;;;40.75;;
23636;SDS011;11995;50.842;4.456;2023-02-13T08:40:22;92.57;;;40.52;;
23636;SDS011;11995;50.842;4.456;2023-02-13T08:42:50;80.12;;;38.05;;
23636;SDS011;11995;50.842;4.456;2023-02-13T08:45:17;75.92;;;36.83;;
23636;SDS011;11995;50.842;4.456;2023-02-13T08:47:45;76.80;;;37.00;;
23636;SDS011;11995;50.842;4.456;2023-02-13T08:50:13;74.32;;;34.63;;
23636;SDS011;11995;50.842;4.456;2023-02-13T08:52:41;73.78;;;34.08;;
23636;SDS011;11995;50.842;4.456;2023-02-13T08:55:09;74.87;;;34.27;;
23636;SDS011;11995;50.842;4.456;2023-02-13T08:57:36;75.20;;;36.77;;
23636;SDS011;11995;50.842;4.456;2023-02-13T09:00:04;75.42;;;35.17;;
23636;SDS011;11995;50.842;4.456;2023-02-13T09:02:32;60.40;;;32.17;;
23636;SDS011;11995;50.842;4.456;2023-02-13T09:05:00;71.02;;;35.90;;
23636;SDS011;11995;50.842;4.456;2023-02-13T09:07:27;67.58;;;35.00;;
23636;SDS011;11995;50.842;4.456;2023-02-13T09:09:55;67.30;;;34.03;;
23636;SDS011;11995;50.842;4.456;2023-02-13T09:12:22;63.75;;;32.10;;
23636;SDS011;11995;50.842;4.456;2023-02-13T09:14:50;65.42;;;33.70;;
23636;SDS011;11995;50.842;4.456;2023-02-13T09:17:17;68.75;;;34.00;;
23636;SDS011;11995;50.842;4.456;2023-02-13T09:19:46;66.90;;;33.75;;
23636;SDS011;11995;50.842;4.456;2023-02-13T09:22:13;64.20;;;32.60;;
23636;SDS011;11995;50.842;4.456;2023-02-13T09:24:42;63.98;;;30.55;;
23636;SDS011;11995;50.842;4.456;2023-02-13T09:27:09;52.62;;;27.82;;
23636;SDS011;11995;50.842;4.456;2023-02-13T09:29:37;58.05;;;28.27;;
23636;SDS011;11995;50.842;4.456;2023-02-13T09:32:04;46.02;;;22.90;;
23636;SDS011;11995;50.842;4.456;2023-02-13T09:34:32;41.63;;;21.40;;
23636;SDS011;11995;50.842;4.456;2023-02-13T09:36:59;36.28;;;20.70;;
23636;SDS011;11995;50.842;4.456;2023-02-13T09:39:27;38.35;;;20.20;;
23636;SDS011;11995;50.842;4.456;2023-02-13T09:41:54;42.23;;;21.30;;
23636;SDS011;11995;50.842;4.456;2023-02-13T09:44:34;34.38;;;19.00;;
23636;SDS011;11995;50.842;4.456;2023-02-13T09:47:05;35.83;;;19.23;;
23636;SDS011;11995;50.842;4.456;2023-02-13T09:49:35;37.25;;;20.50;;
23636;SDS011;11995;50.842;4.456;2023-02-13T09:52:05;33.42;;;18.20;;
23636;SDS011;11995;50.842;4.456;2023-02-13T09:54:34;33.80;;;18.90;;
23636;SDS011;11995;50.842;4.456;2023-02-13T09:59:44;31.23;;;18.12;;
23636;SDS011;11995;50.842;4.456;2023-02-13T10:08:29;33.08;;;17.52;;
23636;SDS011;11995;50.842;4.456;2023-02-13T10:11:20;31.30;;;16.65;;
23636;SDS011;11995;50.842;4.456;2023-02-13T10:14:18;32.45;;;17.27;;
23636;SDS011;11995;50.842;4.456;2023-02-13T10:17:34;29.50;;;16.52;;
23636;SDS011;11995;50.842;4.456;2023-02-13T10:19:43;31.00;;;16.50;;
23636;SDS011;11995;50.842;4.456;2023-02-13T10:22:16;29.63;;;16.23;;
23636;SDS011;11995;50.842;4.456;2023-02-13T10:24:47;29.72;;;16.20;;
23636;SDS011;11995;50.842;4.456;2023-02-13T10:27:37;27.27;;;16.57;;
23636;SDS011;11995;50.842;4.456;2023-02-13T10:32:48;32.48;;;16.45;;
23636;SDS011;11995;50.842;4.456;2023-02-13T10:35:21;27.13;;;15.20;;
23636;SDS011;11995;50.842;4.456;2023-02-13T10:40:30;23.85;;;13.88;;
23636;SDS011;11995;50.842;4.456;2023-02-13T10:43:05;26.15;;;14.00;;
23636;SDS011;11995;50.842;4.456;2023-02-13T10:48:28;22.17;;;13.60;;
23636;SDS011;11995;50.842;4.456;2023-02-13T10:51:08;24.63;;;14.40;;
23636;SDS011;11995;50.842;4.456;2023-02-13T10:56:24;22.67;;;13.62;;
23636;SDS011;11995;50.842;4.456;2023-02-13T11:04:48;25.55;;;14.10;;
23636;SDS011;11995;50.842;4.456;2023-02-13T11:07:18;30.00;;;15.78;;
23636;SDS011;11995;50.842;4.456;2023-02-13T11:09:48;26.52;;;15.85;;
23636;SDS011;11995;50.842;4.456;2023-02-13T11:12:26;24.55;;;14.30;;
23636;SDS011;11995;50.842;4.456;2023-02-13T11:15:01;23.40;;;14.78;;
23636;SDS011;11995;50.842;4.456;2023-02-13T11:17:33;25.80;;;13.78;;
23636;SDS011;11995;50.842;4.456;2023-02-13T11:20:47;25.50;;;14.23;;
23636;SDS011;11995;50.842;4.456;2023-02-13T11:25:16;24.12;;;14.30;;
23636;SDS011;11995;50.842;4.456;2023-02-13T11:27:50;24.43;;;14.45;;
23636;SDS011;11995;50.842;4.456;2023-02-13T11:30:39;25.72;;;14.75;;
23636;SDS011;11995;50.842;4.456;2023-02-13T11:32:59;26.12;;;14.68;;
23636;SDS011;11995;50.842;4.456;2023-02-13T11:35:33;27.27;;;15.45;;
23636;SDS011;11995;50.842;4.456;2023-02-13T11:40:52;26.27;;;15.40;;
23636;SDS011;11995;50.842;4.456;2023-02-13T11:48:34;26.55;;;15.25;;
23636;SDS011;11995;50.842;4.456;2023-02-13T11:51:02;25.65;;;14.30;;
23636;SDS011;11995;50.842;4.456;2023-02-13T11:53:31;25.83;;;15.57;;
23636;SDS011;11995;50.842;4.456;2023-02-13T11:56:10;23.70;;;14.58;;
23636;SDS011;11995;50.842;4.456;2023-02-13T11:58:39;24.47;;;14.58;;
23636;SDS011;11995;50.842;4.456;2023-02-13T12:01:10;26.07;;;15.15;;
23636;SDS011;11995;50.842;4.456;2023-02-13T12:06:32;29.25;;;16.60;;
23636;SDS011;11995;50.842;4.456;2023-02-13T12:09:02;37.70;;;18.10;;
23636;SDS011;11995;50.842;4.456;2023-02-13T12:11:35;25.40;;;16.82;;
23636;SDS011;11995;50.842;4.456;2023-02-13T12:14:15;23.95;;;15.40;;
23636;SDS011;11995;50.842;4.456;2023-02-13T12:16:48;25.10;;;15.85;;
23636;SDS011;11995;50.842;4.456;2023-02-13T12:19:38;25.48;;;14.58;;
23636;SDS011;11995;50.842;4.456;2023-02-13T12:24:46;26.62;;;17.10;;
23636;SDS011;11995;50.842;4.456;2023-02-13T12:27:18;25.37;;;16.27;;
23636;SDS011;11995;50.842;4.456;2023-02-13T12:30:03;25.12;;;15.70;;
23636;SDS011;11995;50.842;4.456;2023-02-13T12:32:56;26.12;;;15.50;;
23636;SDS011;11995;50.842;4.456;2023-02-13T12:43:47;24.23;;;13.88;;
23636;SDS011;11995;50.842;4.456;2023-02-13T12:46:34;23.47;;;14.43;;
23636;SDS011;11995;50.842;4.456;2023-02-13T12:57:09;25.88;;;15.70;;
23636;SDS011;11995;50.842;4.456;2023-02-13T13:02:32;33.10;;;16.97;;
23636;SDS011;11995;50.842;4.456;2023-02-13T13:05:26;26.20;;;17.12;;
23636;SDS011;11995;50.842;4.456;2023-02-13T13:08:15;24.63;;;14.30;;
23636;SDS011;11995;50.842;4.456;2023-02-13T13:13:40;25.45;;;16.40;;
23636;SDS011;11995;50.842;4.456;2023-02-13T13:19:02;27.55;;;16.12;;
23636;SDS011;11995;50.842;4.456;2023-02-13T13:21:36;25.10;;;14.20;;
23636;SDS011;11995;50.842;4.456;2023-02-13T13:27:16;23.83;;;15.28;;
23636;SDS011;11995;50.842;4.456;2023-02-13T13:29:44;25.45;;;14.35;;
23636;SDS011;11995;50.842;4.456;2023-02-13T13:32:21;26.02;;;14.18;;
23636;SDS011;11995;50.842;4.456;2023-02-13T13:34:49;23.42;;;14.65;;
23636;SDS011;11995;50.842;4.456;2023-02-13T13:37:21;30.35;;;17.20;;
23636;SDS011;11995;50.842;4.456;2023-02-13T13:42:50;21.75;;;12.93;;
23636;SDS011;11995;50.842;4.456;2023-02-13T13:45:29;21.23;;;12.88;;
23636;SDS011;11995;50.842;4.456;2023-02-13T13:50:48;20.23;;;12.85;;
23636;SDS011;11995;50.842;4.456;2023-02-13T13:53:17;20.70;;;13.50;;
23636;SDS011;11995;50.842;4.456;2023-02-13T13:58:38;23.62;;;12.37;;
23636;SDS011;11995;50.842;4.456;2023-02-13T14:01:18;21.02;;;11.10;;
23636;SDS011;11995;50.842;4.456;2023-02-13T14:03:48;23.38;;;13.32;;
23636;SDS011;11995;50.842;4.456;2023-02-13T14:06:25;24.52;;;13.80;;
23636;SDS011;11995;50.842;4.456;2023-02-13T14:08:55;21.25;;;12.25;;
23636;SDS011;11995;50.842;4.456;2023-02-13T14:16:57;21.97;;;13.22;;
23636;SDS011;11995;50.842;4.456;2023-02-13T14:19:32;21.62;;;13.38;;
23636;SDS011;11995;50.842;4.456;2023-02-13T14:25:03;20.30;;;12.20;;
23636;SDS011;11995;50.842;4.456;2023-02-13T14:27:36;21.55;;;13.08;;
23636;SDS011;11995;50.842;4.456;2023-02-13T14:30:29;19.82;;;12.40;;
23636;SDS011;11995;50.842;4.456;2023-02-13T14:32:59;19.15;;;12.60;;
23636;SDS011;11995;50.842;4.456;2023-02-13T14:35:34;23.22;;;14.00;;
23636;SDS011;11995;50.842;4.456;2023-02-13T14:38:04;23.60;;;12.40;;
23636;SDS011;11995;50.842;4.456;2023-02-13T14:40:48;19.67;;;12.18;;
23636;SDS011;11995;50.842;4.456;2023-02-13T14:48:40;17.62;;;11.63;;
23636;SDS011;11995;50.842;4.456;2023-02-13T14:59:43;21.55;;;11.28;;
23636;SDS011;11995;50.842;4.456;2023-02-13T15:02:22;20.05;;;12.63;;
23636;SDS011;11995;50.842;4.456;2023-02-13T15:07:31;18.77;;;10.88;;
23636;SDS011;11995;50.842;4.456;2023-02-13T15:10:05;14.98;;;10.43;;
23636;SDS011;11995;50.842;4.456;2023-02-13T15:12:35;18.00;;;11.63;;
23636;SDS011;11995;50.842;4.456;2023-02-13T15:15:22;18.27;;;10.78;;
23636;SDS011;11995;50.842;4.456;2023-02-13T15:20:26;17.80;;;9.85;;
23636;SDS011;11995;50.842;4.456;2023-02-13T15:22:54;19.52;;;10.20;;
23636;SDS011;11995;50.842;4.456;2023-02-13T15:25:37;17.82;;;10.72;;
23636;SDS011;11995;50.842;4.456;2023-02-13T15:28:16;21.23;;;11.60;;
23636;SDS011;11995;50.842;4.456;2023-02-13T15:30:43;17.45;;;11.78;;
23636;SDS011;11995;50.842;4.456;2023-02-13T15:33:19;20.80;;;10.38;;
23636;SDS011;11995;50.842;4.456;2023-02-13T15:35:58;22.77;;;11.57;;
23636;SDS011;11995;50.842;4.456;2023-02-13T15:38:30;20.27;;;10.50;;
23636;SDS011;11995;50.842;4.456;2023-02-13T15:41:06;18.90;;;10.72;;
23636;SDS011;11995;50.842;4.456;2023-02-13T15:43:35;18.15;;;10.58;;
23636;SDS011;11995;50.842;4.456;2023-02-13T15:46:27;23.00;;;11.10;;
23636;SDS011;11995;50.842;4.456;2023-02-13T15:48:55;20.72;;;10.72;;
23636;SDS011;11995;50.842;4.456;2023-02-13T15:51:28;16.25;;;10.75;;
23636;SDS011;11995;50.842;4.456;2023-02-13T15:53:59;16.80;;;11.22;;
23636;SDS011;11995;50.842;4.456;2023-02-13T15:56:29;18.95;;;11.22;;
23636;SDS011;11995;50.842;4.456;2023-02-13T15:58:58;18.35;;;11.75;;
23636;SDS011;11995;50.842;4.456;2023-02-13T16:01:27;19.17;;;11.60;;
23636;SDS011;11995;50.842;4.456;2023-02-13T16:04:05;21.42;;;12.33;;
23636;SDS011;11995;50.842;4.456;2023-02-13T16:06:34;20.10;;;11.65;;
23636;SDS011;11995;50.842;4.456;2023-02-13T16:09:02;18.60;;;11.65;;
23636;SDS011;11995;50.842;4.456;2023-02-13T16:11:37;22.90;;;13.32;;
23636;SDS011;11995;50.842;4.456;2023-02-13T16:14:07;21.85;;;12.60;;
23636;SDS011;11995;50.842;4.456;2023-02-13T16:19:30;19.42;;;12.28;;
23636;SDS011;11995;50.842;4.456;2023-02-13T16:22:01;19.50;;;11.18;;
23636;SDS011;11995;50.842;4.456;2023-02-13T16:24:50;21.70;;;11.18;;
23636;SDS011;11995;50.842;4.456;2023-02-13T16:27:21;17.55;;;11.20;;
23636;SDS011;11995;50.842;4.456;2023-02-13T16:29:56;21.77;;;12.47;;
23636;SDS011;11995;50.842;4.456;2023-02-13T16:32:33;23.73;;;13.55;;
23636;SDS011;11995;50.842;4.456;2023-02-13T16:35:21;18.87;;;12.25;;
23636;SDS011;11995;50.842;4.456;2023-02-13T16:37:57;22.32;;;13.10;;
23636;SDS011;11995;50.842;4.456;2023-02-13T16:40:31;24.15;;;13.72;;
23636;SDS011;11995;50.842;4.456;2023-02-13T16:48:42;25.02;;;15.40;;
23636;SDS011;11995;50.842;4.456;2023-02-13T16:51:37;31.95;;;18.57;;
23636;SDS011;11995;50.842;4.456;2023-02-13T16:56:53;22.00;;;10.80;;
23636;SDS011;11995;50.842;4.456;2023-02-13T16:59:33;22.70;;;13.43;;
23636;SDS011;11995;50.842;4.456;2023-02-13T17:04:48;22.22;;;13.60;;
23636;SDS011;11995;50.842;4.456;2023-02-13T17:07:25;21.65;;;13.20;;
23636;SDS011;11995;50.842;4.456;2023-02-13T17:09:56;22.65;;;12.95;;
23636;SDS011;11995;50.842;4.456;2023-02-13T17:12:25;21.90;;;13.43;;
23636;SDS011;11995;50.842;4.456;2023-02-13T17:14:58;20.92;;;13.15;;
23636;SDS011;11995;50.842;4.456;2023-02-13T17:17:26;25.70;;;14.18;;